sensor_id;sensor_type;location;lat;lon;timestamp;pressure;altitude;pressure_sealevel;temperature;humidity
58598;BME280;64549;46.910;16.844;2022-10-22T00:02:19;99642.56;;;9.33;100.00
58598;BME280;64549;46.910;16.844;2022-10-22T00:07:20;99624.72;;;9.35;100.00
58598;BME280;64549;46.910;16.844;2022-10-22T00:12:20;99626.91;;;9.30;100.00
58598;BME280;64549;46.910;16.844;2022-10-22T00:17:21;99625.25;;;9.29;100.00
58598;BME280;64549;46.910;16.844;2022-10-22T00:22:21;99621.84;;;9.17;100.00
58598;BME280;64549;46.910;16.844;2022-10-22T00:27:22;99613.97;;;9.06;100.00
58598;BME280;64549;46.910;16.844;2022-10-22T00:32:22;99621.59;;;8.99;100.00
58598;BME280;64549;46.910;16.844;2022-10-22T00:37:23;99607.91;;;8.94;100.00
58598;BME280;64549;46.910;16.844;2022-10-22T00:42:25;99604.81;;;8.89;100.00
58598;BME280;64549;46.910;16.844;2022-10-22T00:47:29;99599.03;;;8.83;100.00
58598;BME280;64549;46.910;16.844;2022-10-22T00:52:31;99585.84;;;8.72;100.00
58598;BME280;64549;46.910;16.844;2022-10-22T00:57:33;99578.44;;;8.66;100.00
58598;BME280;64549;46.910;16.844;2022-10-22T01:02:34;99569.56;;;8.55;100.00
58598;BME280;64549;46.910;16.844;2022-10-22T01:07:41;99569.72;;;8.42;100.00
58598;BME280;64549;46.910;16.844;2022-10-22T01:33:46;99557.69;;;8.17;100.00
58598;BME280;64549;46.910;16.844;2022-10-22T01:38:48;99547.19;;;8.27;100.00
58598;BME280;64549;46.910;16.844;2022-10-22T01:43:50;99538.41;;;8.26;100.00
58598;BME280;64549;46.910;16.844;2022-10-22T02:00:09;99531.81;;;8.20;100.00
58598;BME280;64549;46.910;16.844;2022-10-22T02:06:13;99528.06;;;8.23;100.00
58598;BME280;64549;46.910;16.844;2022-10-22T02:10:43;99517.47;;;8.23;100.00
58598;BME280;64549;46.910;16.844;2022-10-22T02:15:46;99517.72;;;8.20;100.00
58598;BME280;64549;46.910;16.844;2022-10-22T02:20:50;99519.13;;;8.24;100.00
58598;BME280;64549;46.910;16.844;2022-10-22T02:25:57;99515.25;;;8.28;100.00
58598;BME280;64549;46.910;16.844;2022-10-22T02:31:05;99517.78;;;8.30;100.00
58598;BME280;64549;46.910;16.844;2022-10-22T02:36:09;99504.47;;;8.41;100.00
58598;BME280;64549;46.910;16.844;2022-10-22T02:41:10;99506.19;;;8.52;100.00
58598;BME280;64549;46.910;16.844;2022-10-22T02:46:11;99497.03;;;8.56;100.00
58598;BME280;64549;46.910;16.844;2022-10-22T02:51:11;99487.03;;;8.60;100.00
58598;BME280;64549;46.910;16.844;2022-10-22T02:56:12;99485.53;;;8.67;100.00
58598;BME280;64549;46.910;16.844;2022-10-22T03:01:13;99478.41;;;8.68;100.00
58598;BME280;64549;46.910;16.844;2022-10-22T03:06:13;99473.50;;;8.63;100.00
58598;BME280;64549;46.910;16.844;2022-10-22T03:11:14;99486.44;;;8.56;100.00
58598;BME280;64549;46.910;16.844;2022-10-22T03:16:14;99495.34;;;8.55;100.00
58598;BME280;64549;46.910;16.844;2022-10-22T03:21:20;99487.97;;;8.38;100.00
58598;BME280;64549;46.910;16.844;2022-10-22T03:26:22;99484.69;;;8.45;100.00
58598;BME280;64549;46.910;16.844;2022-10-22T03:31:23;99473.19;;;8.35;100.00
58598;BME280;64549;46.910;16.844;2022-10-22T03:36:24;99459.38;;;8.31;100.00
58598;BME280;64549;46.910;16.844;2022-10-22T03:41:25;99451.50;;;8.20;100.00
58598;BME280;64549;46.910;16.844;2022-10-22T03:46:26;99456.19;;;8.16;100.00
58598;BME280;64549;46.910;16.844;2022-10-22T03:51:27;99457.53;;;8.10;100.00
58598;BME280;64549;46.910;16.844;2022-10-22T03:56:27;99456.72;;;8.10;100.00
58598;BME280;64549;46.910;16.844;2022-10-22T04:01:29;99443.56;;;7.99;100.00
58598;BME280;64549;46.910;16.844;2022-10-22T04:06:29;99447.88;;;8.00;100.00
58598;BME280;64549;46.910;16.844;2022-10-22T04:11:30;99441.53;;;7.91;100.00
58598;BME280;64549;46.910;16.844;2022-10-22T04:16:30;99431.47;;;7.84;100.00
58598;BME280;64549;46.910;16.844;2022-10-22T04:21:32;99437.72;;;7.83;100.00
58598;BME280;64549;46.910;16.844;2022-10-22T04:26:32;99431.22;;;7.88;100.00
58598;BME280;64549;46.910;16.844;2022-10-22T04:31:33;99434.38;;;7.81;100.00
58598;BME280;64549;46.910;16.844;2022-10-22T04:36:33;99428.75;;;7.75;100.00
58598;BME280;64549;46.910;16.844;2022-10-22T04:41:36;99440.41;;;7.72;100.00
58598;BME280;64549;46.910;16.844;2022-10-22T04:46:37;99450.44;;;7.68;100.00
58598;BME280;64549;46.910;16.844;2022-10-22T04:51:37;99445.00;;;7.70;100.00
58598;BME280;64549;46.910;16.844;2022-10-22T04:56:38;99440.22;;;7.64;100.00
58598;BME280;64549;46.910;16.844;2022-10-22T05:01:41;99448.94;;;7.54;100.00
58598;BME280;64549;46.910;16.844;2022-10-22T05:06:43;99451.72;;;7.41;100.00
58598;BME280;64549;46.910;16.844;2022-10-22T05:11:45;99438.91;;;7.58;100.00
58598;BME280;64549;46.910;16.844;2022-10-22T05:31:05;99449.41;;;7.81;100.00
58598;BME280;64549;46.910;16.844;2022-10-22T05:36:08;99445.28;;;7.88;100.00
58598;BME280;64549;46.910;16.844;2022-10-22T06:00:28;99436.72;;;8.48;100.00
58598;BME280;64549;46.910;16.844;2022-10-22T06:05:29;99453.84;;;8.66;100.00
58598;BME280;64549;46.910;16.844;2022-10-22T06:10:29;99449.00;;;8.81;100.00
58598;BME280;64549;46.910;16.844;2022-10-22T06:15:30;99460.00;;;9.07;100.00
58598;BME280;64549;46.910;16.844;2022-10-22T06:20:33;99465.75;;;9.42;100.00
58598;BME280;64549;46.910;16.844;2022-10-22T06:25:37;99466.78;;;10.96;100.00
58598;BME280;64549;46.910;16.844;2022-10-22T06:30:37;99466.19;;;12.91;100.00
58598;BME280;64549;46.910;16.844;2022-10-22T06:35:38;99455.91;;;15.90;97.63
58598;BME280;64549;46.910;16.844;2022-10-22T06:40:38;99473.88;;;15.11;92.08
58598;BME280;64549;46.910;16.844;2022-10-22T06:45:42;99475.28;;;14.90;95.68
58598;BME280;64549;46.910;16.844;2022-10-22T06:50:43;99468.09;;;14.91;95.75
58598;BME280;64549;46.910;16.844;2022-10-22T06:55:43;99455.50;;;14.26;100.00
58598;BME280;64549;46.910;16.844;2022-10-22T07:00:43;99466.13;;;14.68;100.00
58598;BME280;64549;46.910;16.844;2022-10-22T07:05:44;99480.09;;;14.38;99.68
58598;BME280;64549;46.910;16.844;2022-10-22T07:10:44;99483.91;;;15.40;94.88
58598;BME280;64549;46.910;16.844;2022-10-22T07:15:45;99472.56;;;15.62;89.66
58598;BME280;64549;46.910;16.844;2022-10-22T07:20:46;99473.69;;;15.12;98.40
58598;BME280;64549;46.910;16.844;2022-10-22T07:25:47;99480.56;;;14.58;100.00
58598;BME280;64549;46.910;16.844;2022-10-22T07:30:48;99469.75;;;13.85;100.00
58598;BME280;64549;46.910;16.844;2022-10-22T07:35:48;99480.19;;;13.45;100.00
58598;BME280;64549;46.910;16.844;2022-10-22T07:40:49;99493.81;;;12.47;100.00
58598;BME280;64549;46.910;16.844;2022-10-22T07:45:49;99491.56;;;12.34;100.00
58598;BME280;64549;46.910;16.844;2022-10-22T07:50:52;99500.75;;;13.44;100.00
58598;BME280;64549;46.910;16.844;2022-10-22T07:55:53;99505.28;;;13.60;100.00
58598;BME280;64549;46.910;16.844;2022-10-22T08:00:55;99507.75;;;14.87;100.00
58598;BME280;64549;46.910;16.844;2022-10-22T08:05:56;99508.59;;;14.71;100.00
58598;BME280;64549;46.910;16.844;2022-10-22T08:10:58;99507.00;;;15.10;100.00
58598;BME280;64549;46.910;16.844;2022-10-22T08:16:00;99509.66;;;15.73;100.00
58598;BME280;64549;46.910;16.844;2022-10-22T08:21:00;99504.47;;;15.72;100.00
58598;BME280;64549;46.910;16.844;2022-10-22T08:26:01;99504.38;;;15.65;100.00
58598;BME280;64549;46.910;16.844;2022-10-22T08:31:04;99525.50;;;15.83;100.00
58598;BME280;64549;46.910;16.844;2022-10-22T08:36:05;99528.31;;;15.98;100.00
58598;BME280;64549;46.910;16.844;2022-10-22T08:46:25;99541.19;;;14.99;100.00
58598;BME280;64549;46.910;16.844;2022-10-22T08:51:35;99550.44;;;14.80;100.00
58598;BME280;64549;46.910;16.844;2022-10-22T08:56:43;99558.44;;;14.80;100.00
58598;BME280;64549;46.910;16.844;2022-10-22T09:01:46;99558.78;;;14.69;100.00
58598;BME280;64549;46.910;16.844;2022-10-22T09:06:47;99571.19;;;14.78;100.00
58598;BME280;64549;46.910;16.844;2022-10-22T09:11:50;99570.50;;;15.41;100.00
58598;BME280;64549;46.910;16.844;2022-10-22T09:17:03;99577.41;;;15.90;100.00
58598;BME280;64549;46.910;16.844;2022-10-22T09:27:28;99605.75;;;16.40;100.00
58598;BME280;64549;46.910;16.844;2022-10-22T09:32:30;99622.22;;;16.37;100.00
58598;BME280;64549;46.910;16.844;2022-10-22T09:37:31;99631.28;;;16.36;100.00
58598;BME280;64549;46.910;16.844;2022-10-22T09:42:32;99643.91;;;16.03;100.00
58598;BME280;64549;46.910;16.844;2022-10-22T09:47:37;99642.44;;;15.92;100.00
58598;BME280;64549;46.910;16.844;2022-10-22T09:52:38;99658.53;;;15.84;100.00
58598;BME280;64549;46.910;16.844;2022-10-22T09:57:39;99656.59;;;15.78;100.00
58598;BME280;64549;46.910;16.844;2022-10-22T10:02:39;99660.41;;;15.84;100.00
58598;BME280;64549;46.910;16.844;2022-10-22T10:07:41;99659.75;;;15.82;100.00
58598;BME280;64549;46.910;16.844;2022-10-22T10:13:06;99658.94;;;15.73;100.00
58598;BME280;64549;46.910;16.844;2022-10-22T10:34:51;99687.81;;;13.61;100.00
58598;BME280;64549;46.910;16.844;2022-10-22T10:40:06;99692.13;;;13.27;100.00
58598;BME280;64549;46.910;16.844;2022-10-22T10:55:37;99703.41;;;12.58;100.00
58598;BME280;64549;46.910;16.844;2022-10-22T11:01:10;99692.97;;;12.83;100.00
58598;BME280;64549;46.910;16.844;2022-10-22T11:06:15;99697.41;;;12.56;100.00
58598;BME280;64549;46.910;16.844;2022-10-22T11:11:29;99701.75;;;12.57;100.00
58598;BME280;64549;46.910;16.844;2022-10-22T11:16:45;99695.25;;;12.59;100.00
58598;BME280;64549;46.910;16.844;2022-10-22T11:22:04;99694.81;;;12.64;100.00
58598;BME280;64549;46.910;16.844;2022-10-22T11:32:19;99716.47;;;12.61;100.00
58598;BME280;64549;46.910;16.844;2022-10-22T11:37:23;99720.88;;;12.52;100.00
58598;BME280;64549;46.910;16.844;2022-10-22T11:42:35;99731.66;;;12.61;100.00
58598;BME280;64549;46.910;16.844;2022-10-22T11:48:03;99730.34;;;12.83;100.00
58598;BME280;64549;46.910;16.844;2022-10-22T12:08:32;99713.78;;;12.97;100.00
58598;BME280;64549;46.910;16.844;2022-10-22T12:19:26;99715.75;;;12.95;100.00
58598;BME280;64549;46.910;16.844;2022-10-22T12:24:31;99719.78;;;13.00;100.00
58598;BME280;64549;46.910;16.844;2022-10-22T12:29:33;99723.31;;;13.00;100.00
58598;BME280;64549;46.910;16.844;2022-10-22T12:34:34;99708.97;;;13.01;100.00
58598;BME280;64549;46.910;16.844;2022-10-22T12:39:45;99699.34;;;13.08;100.00
58598;BME280;64549;46.910;16.844;2022-10-22T12:44:46;99704.56;;;13.18;100.00
58598;BME280;64549;46.910;16.844;2022-10-22T12:49:48;99719.97;;;13.25;100.00
58598;BME280;64549;46.910;16.844;2022-10-22T12:54:50;99733.84;;;13.28;100.00
58598;BME280;64549;46.910;16.844;2022-10-22T12:59:51;99723.94;;;13.47;100.00
58598;BME280;64549;46.910;16.844;2022-10-22T13:05:15;99726.25;;;13.68;100.00
58598;BME280;64549;46.910;16.844;2022-10-22T13:10:25;99730.69;;;13.86;100.00
58598;BME280;64549;46.910;16.844;2022-10-22T13:20:27;99734.50;;;13.83;100.00
58598;BME280;64549;46.910;16.844;2022-10-22T13:25:36;99728.34;;;13.83;100.00
58598;BME280;64549;46.910;16.844;2022-10-22T13:30:51;99713.28;;;13.82;100.00
58598;BME280;64549;46.910;16.844;2022-10-22T13:35:54;99704.47;;;13.55;100.00
58598;BME280;64549;46.910;16.844;2022-10-22T13:40:55;99725.34;;;13.51;100.00
58598;BME280;64549;46.910;16.844;2022-10-22T13:45:59;99728.25;;;13.40;100.00
58598;BME280;64549;46.910;16.844;2022-10-22T13:50:59;99730.44;;;13.44;100.00
58598;BME280;64549;46.910;16.844;2022-10-22T13:56:00;99725.78;;;13.46;100.00
58598;BME280;64549;46.910;16.844;2022-10-22T14:01:02;99730.66;;;13.25;100.00
58598;BME280;64549;46.910;16.844;2022-10-22T14:06:12;99716.81;;;13.29;100.00
58598;BME280;64549;46.910;16.844;2022-10-22T14:11:15;99723.38;;;13.35;100.00
58598;BME280;64549;46.910;16.844;2022-10-22T14:16:21;99731.13;;;13.20;100.00
58598;BME280;64549;46.910;16.844;2022-10-22T14:21:22;99729.59;;;13.17;100.00
58598;BME280;64549;46.910;16.844;2022-10-22T14:26:28;99739.63;;;13.23;100.00
58598;BME280;64549;46.910;16.844;2022-10-22T14:31:30;99733.50;;;13.05;100.00
58598;BME280;64549;46.910;16.844;2022-10-22T14:36:31;99746.84;;;13.05;100.00
58598;BME280;64549;46.910;16.844;2022-10-22T14:41:31;99742.13;;;12.99;100.00
58598;BME280;64549;46.910;16.844;2022-10-22T14:46:32;99757.31;;;12.98;100.00
58598;BME280;64549;46.910;16.844;2022-10-22T14:51:33;99750.59;;;12.94;100.00
58598;BME280;64549;46.910;16.844;2022-10-22T14:56:33;99756.16;;;12.82;100.00
58598;BME280;64549;46.910;16.844;2022-10-22T15:01:34;99774.41;;;12.87;100.00
58598;BME280;64549;46.910;16.844;2022-10-22T15:06:35;99781.63;;;12.77;100.00
58598;BME280;64549;46.910;16.844;2022-10-22T15:11:35;99794.38;;;12.65;100.00
58598;BME280;64549;46.910;16.844;2022-10-22T15:16:36;99793.16;;;12.59;100.00
58598;BME280;64549;46.910;16.844;2022-10-22T15:21:36;99811.13;;;12.57;100.00
58598;BME280;64549;46.910;16.844;2022-10-22T15:26:37;99824.75;;;12.54;100.00
58598;BME280;64549;46.910;16.844;2022-10-22T15:36:44;99837.16;;;12.45;100.00
58598;BME280;64549;46.910;16.844;2022-10-22T15:41:45;99833.94;;;12.41;100.00
58598;BME280;64549;46.910;16.844;2022-10-22T15:46:46;99842.38;;;12.37;100.00
58598;BME280;64549;46.910;16.844;2022-10-22T15:51:47;99839.75;;;12.27;100.00
58598;BME280;64549;46.910;16.844;2022-10-22T15:56:47;99848.81;;;12.16;100.00
58598;BME280;64549;46.910;16.844;2022-10-22T16:01:48;99850.31;;;12.18;100.00
58598;BME280;64549;46.910;16.844;2022-10-22T16:06:50;99859.31;;;12.17;100.00
58598;BME280;64549;46.910;16.844;2022-10-22T16:11:53;99869.97;;;12.17;100.00
58598;BME280;64549;46.910;16.844;2022-10-22T16:16:54;99871.94;;;12.15;100.00
58598;BME280;64549;46.910;16.844;2022-10-22T16:21:55;99882.91;;;12.12;100.00
58598;BME280;64549;46.910;16.844;2022-10-22T16:26:57;99886.53;;;12.11;100.00
58598;BME280;64549;46.910;16.844;2022-10-22T16:31:57;99877.28;;;12.05;100.00
58598;BME280;64549;46.910;16.844;2022-10-22T16:36:58;99869.31;;;11.95;100.00
58598;BME280;64549;46.910;16.844;2022-10-22T16:41:58;99870.97;;;11.97;100.00
58598;BME280;64549;46.910;16.844;2022-10-22T16:46:59;99855.84;;;11.97;100.00
58598;BME280;64549;46.910;16.844;2022-10-22T16:52:00;99853.31;;;11.95;100.00
58598;BME280;64549;46.910;16.844;2022-10-22T16:57:00;99859.91;;;11.91;100.00
58598;BME280;64549;46.910;16.844;2022-10-22T17:02:01;99871.16;;;11.95;100.00
58598;BME280;64549;46.910;16.844;2022-10-22T17:07:01;99902.03;;;11.88;100.00
58598;BME280;64549;46.910;16.844;2022-10-22T17:12:02;99915.75;;;11.93;100.00
58598;BME280;64549;46.910;16.844;2022-10-22T17:17:02;99901.88;;;11.89;100.00
58598;BME280;64549;46.910;16.844;2022-10-22T17:22:03;99910.16;;;11.86;100.00
58598;BME280;64549;46.910;16.844;2022-10-22T17:27:10;99942.13;;;11.86;100.00
58598;BME280;64549;46.910;16.844;2022-10-22T17:32:13;99921.09;;;11.83;100.00
58598;BME280;64549;46.910;16.844;2022-10-22T17:37:15;99927.69;;;11.79;100.00
58598;BME280;64549;46.910;16.844;2022-10-22T17:42:15;99940.59;;;11.74;100.00
58598;BME280;64549;46.910;16.844;2022-10-22T17:47:16;99934.56;;;11.62;100.00
58598;BME280;64549;46.910;16.844;2022-10-22T17:52:16;99947.88;;;11.42;100.00
58598;BME280;64549;46.910;16.844;2022-10-22T17:57:17;99949.69;;;11.22;100.00
58598;BME280;64549;46.910;16.844;2022-10-22T18:02:18;99938.56;;;10.97;100.00
58598;BME280;64549;46.910;16.844;2022-10-22T18:07:21;99943.38;;;10.72;100.00
58598;BME280;64549;46.910;16.844;2022-10-22T18:12:21;99945.97;;;10.52;100.00
58598;BME280;64549;46.910;16.844;2022-10-22T18:17:22;99940.28;;;10.35;100.00
58598;BME280;64549;46.910;16.844;2022-10-22T18:22:23;99947.72;;;10.20;100.00
58598;BME280;64549;46.910;16.844;2022-10-22T18:27:24;99953.84;;;10.11;100.00
58598;BME280;64549;46.910;16.844;2022-10-22T18:32:24;99958.44;;;9.87;100.00
58598;BME280;64549;46.910;16.844;2022-10-22T18:37:25;99962.13;;;9.75;100.00
58598;BME280;64549;46.910;16.844;2022-10-22T18:42:25;99965.81;;;9.62;100.00
58598;BME280;64549;46.910;16.844;2022-10-22T18:47:26;99967.63;;;9.50;100.00
58598;BME280;64549;46.910;16.844;2022-10-22T18:52:26;99972.53;;;9.34;100.00
58598;BME280;64549;46.910;16.844;2022-10-22T18:57:26;99985.81;;;9.22;100.00
58598;BME280;64549;46.910;16.844;2022-10-22T19:02:27;99993.31;;;9.17;100.00
58598;BME280;64549;46.910;16.844;2022-10-22T19:07:28;99990.91;;;9.14;100.00
58598;BME280;64549;46.910;16.844;2022-10-22T19:12:30;100007.19;;;9.09;100.00
58598;BME280;64549;46.910;16.844;2022-10-22T19:17:31;100012.00;;;9.16;100.00
58598;BME280;64549;46.910;16.844;2022-10-22T19:22:31;100015.25;;;9.19;100.00
58598;BME280;64549;46.910;16.844;2022-10-22T19:27:32;100026.09;;;9.28;100.00
58598;BME280;64549;46.910;16.844;2022-10-22T19:32:35;100028.84;;;9.37;100.00
58598;BME280;64549;46.910;16.844;2022-10-22T19:37:35;100033.66;;;9.44;100.00
58598;BME280;64549;46.910;16.844;2022-10-22T19:42:37;100038.34;;;9.51;100.00
58598;BME280;64549;46.910;16.844;2022-10-22T19:47:37;100056.78;;;9.64;100.00
58598;BME280;64549;46.910;16.844;2022-10-22T19:52:38;100063.91;;;9.75;100.00
58598;BME280;64549;46.910;16.844;2022-10-22T19:57:38;100079.34;;;10.03;100.00
58598;BME280;64549;46.910;16.844;2022-10-22T20:02:39;100073.38;;;10.22;100.00
58598;BME280;64549;46.910;16.844;2022-10-22T20:07:39;100076.56;;;10.37;100.00
58598;BME280;64549;46.910;16.844;2022-10-22T20:12:39;100078.47;;;10.47;100.00
58598;BME280;64549;46.910;16.844;2022-10-22T20:17:40;100077.81;;;10.55;100.00
58598;BME280;64549;46.910;16.844;2022-10-22T20:22:40;100088.25;;;10.68;100.00
58598;BME280;64549;46.910;16.844;2022-10-22T20:27:42;100097.66;;;10.72;100.00
58598;BME280;64549;46.910;16.844;2022-10-22T20:32:42;100100.50;;;10.80;100.00
58598;BME280;64549;46.910;16.844;2022-10-22T20:37:43;100105.31;;;10.86;100.00
58598;BME280;64549;46.910;16.844;2022-10-22T20:42:46;100101.16;;;10.94;100.00
58598;BME280;64549;46.910;16.844;2022-10-22T20:47:48;100100.91;;;10.97;100.00
58598;BME280;64549;46.910;16.844;2022-10-22T20:52:48;100114.19;;;10.97;100.00
58598;BME280;64549;46.910;16.844;2022-10-22T20:57:49;100111.13;;;11.01;100.00
58598;BME280;64549;46.910;16.844;2022-10-22T21:02:49;100119.44;;;11.08;100.00
58598;BME280;64549;46.910;16.844;2022-10-22T21:07:50;100118.88;;;11.14;100.00
58598;BME280;64549;46.910;16.844;2022-10-22T21:12:50;100118.38;;;11.21;100.00
58598;BME280;64549;46.910;16.844;2022-10-22T21:17:51;100127.34;;;11.20;100.00
58598;BME280;64549;46.910;16.844;2022-10-22T21:22:51;100130.25;;;11.16;100.00
58598;BME280;64549;46.910;16.844;2022-10-22T21:27:51;100133.09;;;11.25;100.00
58598;BME280;64549;46.910;16.844;2022-10-22T21:32:52;100125.09;;;11.25;100.00
58598;BME280;64549;46.910;16.844;2022-10-22T21:37:55;100127.19;;;11.21;100.00
58598;BME280;64549;46.910;16.844;2022-10-22T21:42:55;100123.09;;;11.17;100.00
58598;BME280;64549;46.910;16.844;2022-10-22T21:47:56;100136.97;;;11.11;100.00
58598;BME280;64549;46.910;16.844;2022-10-22T21:52:56;100144.22;;;11.09;100.00
58598;BME280;64549;46.910;16.844;2022-10-22T21:57:57;100146.19;;;11.07;100.00
58598;BME280;64549;46.910;16.844;2022-10-22T22:02:57;100143.31;;;10.98;100.00
58598;BME280;64549;46.910;16.844;2022-10-22T22:07:58;100138.31;;;11.05;100.00
58598;BME280;64549;46.910;16.844;2022-10-22T22:12:58;100142.03;;;11.14;100.00
58598;BME280;64549;46.910;16.844;2022-10-22T22:18:02;100136.09;;;11.10;100.00
58598;BME280;64549;46.910;16.844;2022-10-22T22:23:02;100143.09;;;11.11;100.00
58598;BME280;64549;46.910;16.844;2022-10-22T22:28:03;100146.13;;;10.97;100.00
58598;BME280;64549;46.910;16.844;2022-10-22T22:33:03;100152.22;;;10.87;100.00
58598;BME280;64549;46.910;16.844;2022-10-22T22:38:03;100157.66;;;11.07;100.00
58598;BME280;64549;46.910;16.844;2022-10-22T22:43:04;100154.22;;;11.16;100.00
58598;BME280;64549;46.910;16.844;2022-10-22T22:48:05;100149.84;;;11.15;100.00
58598;BME280;64549;46.910;16.844;2022-10-22T22:53:05;100137.53;;;11.14;100.00
58598;BME280;64549;46.910;16.844;2022-10-22T22:58:06;100136.16;;;11.20;100.00
58598;BME280;64549;46.910;16.844;2022-10-22T23:03:06;100138.53;;;11.23;100.00
58598;BME280;64549;46.910;16.844;2022-10-22T23:08:06;100150.19;;;11.22;100.00
58598;BME280;64549;46.910;16.844;2022-10-22T23:13:07;100143.47;;;11.28;100.00
58598;BME280;64549;46.910;16.844;2022-10-22T23:18:07;100137.59;;;11.34;100.00
58598;BME280;64549;46.910;16.844;2022-10-22T23:23:08;100141.56;;;11.40;100.00
58598;BME280;64549;46.910;16.844;2022-10-22T23:28:08;100135.28;;;11.41;100.00
58598;BME280;64549;46.910;16.844;2022-10-22T23:33:09;100126.03;;;11.45;100.00
58598;BME280;64549;46.910;16.844;2022-10-22T23:38:10;100127.00;;;11.44;100.00
58598;BME280;64549;46.910;16.844;2022-10-22T23:43:10;100133.59;;;11.50;100.00
58598;BME280;64549;46.910;16.844;2022-10-22T23:48:11;100133.47;;;11.51;100.00
58598;BME280;64549;46.910;16.844;2022-10-22T23:53:11;100132.50;;;11.52;100.00
58598;BME280;64549;46.910;16.844;2022-10-22T23:58:12;100131.25;;;11.56;100.00
